Time;durP1;ratioP1;P1;durP2;ratioP2;P2;SDS_P1;SDS_P2;PMS_P1;PMS_P2;Temp;Humidity;BMP_temperature;BMP_pressure;BME280_temperature;BME280_humidity;BME280_pressure;Samples;Min_cycle;Max_cycle;Signal;HPM_P1;HPM_P2
2022/01/11 00:01:19;;;;;;;0.10;0.10;;;3.90;99.90;;;;;;5076867;28;20054;-69
2022/01/11 00:03:44;;;;;;;2.78;2.55;;;3.80;99.90;;;;;;5076551;28;20134;-69
2022/01/11 00:09:00;;;;;;;0.47;0.47;;;3.80;99.90;;;;;;5061883;28;20075;-68
2022/01/11 00:11:26;;;;;;;0.10;0.10;;;3.80;99.90;;;;;;5070001;28;20115;-68
2022/01/11 00:13:52;;;;;;;0.47;0.47;;;3.70;99.90;;;;;;5070559;28;20028;-69
2022/01/11 00:16:17;;;;;;;0.10;0.10;;;3.70;99.90;;;;;;5064121;28;20653;-68
2022/01/11 00:18:44;;;;;;;1.48;1.38;;;3.70;99.90;;;;;;5050784;28;20029;-69
2022/01/11 00:21:10;;;;;;;3.72;2.75;;;3.80;99.90;;;;;;5050614;28;20051;-68
2022/01/11 00:26:03;;;;;;;0.10;0.10;;;3.80;99.90;;;;;;5069769;28;20457;-68
2022/01/11 00:28:30;;;;;;;0.10;0.10;;;3.80;99.90;;;;;;5069931;28;20371;-68
2022/01/11 00:30:56;;;;;;;0.98;0.98;;;3.70;99.90;;;;;;5069326;28;20028;-68
2022/01/11 00:33:36;;;;;;;0.80;0.80;;;3.70;99.90;;;;;;5050260;28;20028;-68
2022/01/11 00:36:06;;;;;;;0.10;0.10;;;3.80;99.90;;;;;;5050182;28;20030;-69
2022/01/11 00:38:35;;;;;;;0.10;0.10;;;3.90;99.90;;;;;;5060316;28;20029;-68
2022/01/11 00:41:03;;;;;;;0.10;0.10;;;3.90;99.90;;;;;;5070314;28;20465;-68
2022/01/11 00:43:29;;;;;;;0.10;0.10;;;4.00;99.90;;;;;;5069723;28;20047;-69
2022/01/11 00:45:56;;;;;;;0.20;0.20;;;4.00;99.90;;;;;;5070044;28;20071;-69
2022/01/11 00:48:23;;;;;;;0.10;0.10;;;4.10;99.90;;;;;;5057638;28;20025;-68
2022/01/11 00:50:49;;;;;;;0.10;0.10;;;4.10;99.90;;;;;;5054844;28;20068;-68
2022/01/11 00:53:16;;;;;;;0.52;0.52;;;4.10;99.90;;;;;;5049656;28;20025;-68
2022/01/11 00:55:42;;;;;;;0.10;0.10;;;4.10;99.90;;;;;;5054007;28;20025;-68
2022/01/11 00:58:07;;;;;;;0.20;0.20;;;4.10;99.90;;;;;;5078699;28;20029;-69
2022/01/11 01:00:36;;;;;;;0.65;0.65;;;4.10;99.90;;;;;;5071444;28;20024;-70
2022/01/11 01:03:02;;;;;;;0.10;0.10;;;4.10;99.90;;;;;;5056063;28;20486;-69
2022/01/11 01:05:28;;;;;;;0.32;0.32;;;4.10;99.90;;;;;;5054794;28;20067;-69
2022/01/11 01:07:54;;;;;;;0.10;0.10;;;4.10;99.90;;;;;;5069864;28;20028;-68
2022/01/11 01:10:35;;;;;;;0.10;0.10;;;4.10;99.90;;;;;;5069543;28;20039;-69
2022/01/11 01:13:02;;;;;;;0.10;0.10;;;4.10;99.90;;;;;;5068219;28;20029;-68
2022/01/11 01:15:28;;;;;;;0.55;0.55;;;4.00;99.90;;;;;;5049251;28;20108;-70
2022/01/11 01:17:55;;;;;;;3.83;3.53;;;4.00;99.90;;;;;;5048473;28;20112;-69
2022/01/11 01:20:21;;;;;;;0.10;0.10;;;4.10;99.90;;;;;;5071801;28;21110;-68
2022/01/11 01:22:50;;;;;;;0.77;0.77;;;4.10;99.90;;;;;;5057961;28;20044;-69
2022/01/11 01:25:20;;;;;;;0.10;0.10;;;4.00;99.90;;;;;;5049601;28;20025;-70
2022/01/11 01:27:50;;;;;;;0.10;0.10;;;4.00;99.90;;;;;;5049515;28;20024;-69
2022/01/11 01:30:17;;;;;;;0.50;0.50;;;3.90;99.90;;;;;;5052655;28;20044;-69
2022/01/11 01:32:44;;;;;;;0.32;0.32;;;3.90;99.90;;;;;;5069331;28;20025;-69
2022/01/11 01:35:11;;;;;;;0.10;0.10;;;3.80;99.90;;;;;;5069233;28;20016;-68
2022/01/11 01:37:36;;;;;;;0.30;0.30;;;3.80;99.90;;;;;;5069617;28;20032;-68
2022/01/11 01:40:04;;;;;;;0.10;0.10;;;3.80;99.90;;;;;;5069686;28;20374;-68
2022/01/11 01:42:31;;;;;;;1.85;1.75;;;3.70;99.90;;;;;;5068080;28;20033;-70
2022/01/11 01:45:00;;;;;;;0.10;0.10;;;3.60;99.90;;;;;;5068736;28;20025;-68
2022/01/11 01:47:26;;;;;;;0.10;0.10;;;3.60;99.90;;;;;;5094909;22;20090;-70
2022/01/11 01:49:52;;;;;;;0.10;0.10;;;3.60;99.90;;;;;;5106673;28;20103;-70
2022/01/11 01:52:18;;;;;;;0.20;0.20;;;3.90;99.90;;;;;;5111026;28;20098;-70
2022/01/11 01:54:44;;;;;;;0.90;0.90;;;3.60;99.90;;;;;;5121595;28;20023;-69
2022/01/11 01:57:10;;;;;;;0.80;0.80;;;3.70;99.90;;;;;;5116764;28;20030;-70
2022/01/11 01:59:36;;;;;;;1.75;1.65;;;3.70;99.90;;;;;;5129449;28;20054;-69
2022/01/11 02:02:02;;;;;;;0.45;0.45;;;3.60;99.90;;;;;;5129923;28;20026;-70
2022/01/11 02:04:28;;;;;;;0.43;0.43;;;3.60;99.90;;;;;;5130871;28;20016;-70
2022/01/11 02:06:54;;;;;;;0.30;0.30;;;3.60;99.90;;;;;;5112890;28;20458;-69
2022/01/11 02:09:20;;;;;;;0.40;0.40;;;3.60;99.90;;;;;;5109616;28;20055;-69
2022/01/11 02:11:48;;;;;;;17.73;6.57;;;3.70;99.90;;;;;;5120378;27;20109;-69
2022/01/11 02:14:14;;;;;;;2.53;1.08;;;3.70;99.90;;;;;;5120970;27;20062;-70
2022/01/11 02:16:40;;;;;;;0.10;0.10;;;3.70;99.90;;;;;;5130602;27;20512;-70
2022/01/11 02:19:06;;;;;;;0.10;0.10;;;3.70;99.90;;;;;;5134287;27;20031;-69
2022/01/11 02:21:32;;;;;;;0.40;0.40;;;3.70;99.90;;;;;;5125738;27;20031;-70
2022/01/11 02:23:59;;;;;;;0.10;0.10;;;3.60;99.90;;;;;;5113806;28;20111;-70
2022/01/11 02:26:25;;;;;;;0.30;0.30;;;3.60;99.90;;;;;;5122786;27;20027;-69
2022/01/11 02:28:51;;;;;;;0.38;0.38;;;3.60;99.90;;;;;;5133572;27;20715;-70
2022/01/11 02:31:17;;;;;;;0.10;0.10;;;3.50;99.90;;;;;;5131720;27;20030;-69
2022/01/11 02:33:46;;;;;;;0.10;0.10;;;3.50;99.90;;;;;;5115408;27;20030;-69
2022/01/11 02:36:24;;;;;;;0.47;0.47;;;3.60;99.90;;;;;;5133551;27;20019;-69
2022/01/11 02:38:53;;;;;;;0.75;0.75;;;3.70;99.90;;;;;;5132310;27;20027;-68
2022/01/11 02:41:19;;;;;;;0.10;0.10;;;3.60;99.90;;;;;;5133697;27;20034;-68
2022/01/11 02:43:47;;;;;;;2.85;2.20;;;3.60;99.90;;;;;;5133502;27;20591;-69
2022/01/11 02:46:21;;;;;;;0.10;0.10;;;3.50;99.90;;;;;;5132969;27;20031;-70
2022/01/11 02:48:48;;;;;;;1.65;1.55;;;3.50;99.90;;;;;;5124951;27;20034;-70
2022/01/11 02:51:13;;;;;;;0.10;0.10;;;3.60;99.90;;;;;;5139903;27;20027;-69
2022/01/11 02:53:45;;;;;;;0.10;0.10;;;3.60;99.90;;;;;;5130037;27;20141;-69
2022/01/11 02:56:12;;;;;;;0.10;0.10;;;3.70;99.90;;;;;;5129584;27;20137;-71
2022/01/11 02:58:39;;;;;;;0.35;0.35;;;3.70;99.90;;;;;;5114870;27;20392;-69
2022/01/11 03:01:06;;;;;;;4.35;4.03;;;3.70;99.90;;;;;;5132882;27;20171;-68
2022/01/11 03:03:31;;;;;;;0.10;0.10;;;3.60;99.90;;;;;;5132841;27;20023;-69
2022/01/11 03:06:02;;;;;;;0.10;0.10;;;3.60;99.90;;;;;;5123491;27;20130;-70
2022/01/11 03:08:31;;;;;;;0.10;0.10;;;3.60;99.90;;;;;;5112549;28;20039;-68
2022/01/11 03:10:57;;;;;;;0.10;0.10;;;3.70;99.90;;;;;;5113201;27;20078;-70
2022/01/11 03:13:24;;;;;;;0.10;0.10;;;3.70;99.90;;;;;;5132558;27;20030;-69
2022/01/11 03:15:51;;;;;;;0.80;0.75;;;3.70;99.90;;;;;;5125609;27;20484;-69
2022/01/11 03:18:17;;;;;;;0.30;0.30;;;3.60;99.90;;;;;;5132971;27;20098;-70
2022/01/11 03:20:45;;;;;;;0.10;0.10;;;3.60;99.90;;;;;;5133023;27;20106;-69
2022/01/11 03:23:12;;;;;;;1.55;1.55;;;3.60;99.90;;;;;;5128981;27;20019;-69
2022/01/11 03:25:38;;;;;;;0.10;0.10;;;3.60;99.90;;;;;;5112229;28;20473;-69
2022/01/11 03:28:04;;;;;;;0.22;0.22;;;3.60;99.90;;;;;;5112176;28;20128;-69
2022/01/11 03:30:31;;;;;;;0.20;0.20;;;3.70;99.90;;;;;;5121630;27;20031;-69
2022/01/11 03:32:56;;;;;;;0.13;0.13;;;3.70;99.90;;;;;;5113372;27;20027;-69
2022/01/11 03:35:23;;;;;;;0.10;0.10;;;3.80;99.90;;;;;;5111778;28;20534;-69
2022/01/11 03:37:50;;;;;;;0.95;0.95;;;3.80;99.90;;;;;;5097008;27;20015;-68
2022/01/11 03:40:21;;;;;;;0.35;0.35;;;3.80;99.90;;;;;;5130712;27;20034;-69
2022/01/11 03:42:48;;;;;;;2.30;1.20;;;3.70;99.90;;;;;;5131897;27;20035;-69
2022/01/11 03:45:15;;;;;;;0.22;0.22;;;3.80;99.90;;;;;;5130622;27;20030;-69
2022/01/11 03:47:41;;;;;;;0.73;0.73;;;3.80;99.90;;;;;;5116943;27;20442;-69
2022/01/11 03:50:09;;;;;;;1.00;1.00;;;3.90;99.90;;;;;;5110848;28;20473;-69
2022/01/11 03:52:35;;;;;;;0.10;0.10;;;3.90;99.90;;;;;;5110994;28;20027;-69
2022/01/11 03:55:05;;;;;;;0.00;0.00;;;3.90;99.90;;;;;;5119921;27;20099;-69
2022/01/11 03:57:32;;;;;;;0.10;0.10;;;3.90;99.90;;;;;;5125473;27;20023;-69
2022/01/11 04:00:00;;;;;;;4.18;3.60;;;3.90;99.90;;;;;;5131847;27;20038;-69
2022/01/11 04:02:27;;;;;;;3.70;1.65;;;3.90;99.90;;;;;;5131931;27;20034;-70
2022/01/11 04:04:53;;;;;;;0.80;0.80;;;3.90;99.90;;;;;;5131555;27;20039;-69
2022/01/11 04:07:24;;;;;;;0.10;0.10;;;3.90;99.90;;;;;;5112980;27;20111;-70
2022/01/11 04:09:52;;;;;;;0.10;0.10;;;3.90;99.90;;;;;;5131935;27;20045;-69
2022/01/11 04:12:18;;;;;;;0.10;0.10;;;3.80;99.90;;;;;;5131522;27;20049;-71
2022/01/11 04:14:43;;;;;;;0.10;0.10;;;3.80;99.90;;;;;;5119592;27;20037;-69
2022/01/11 04:17:10;;;;;;;0.10;0.10;;;3.80;99.90;;;;;;5131612;27;20094;-69
2022/01/11 04:19:36;;;;;;;0.10;0.10;;;3.90;99.90;;;;;;5131695;27;20080;-68
2022/01/11 04:22:02;;;;;;;3.92;2.75;;;3.90;99.90;;;;;;5130185;27;20560;-69
2022/01/11 04:24:27;;;;;;;0.13;0.13;;;3.80;99.90;;;;;;5131201;27;20019;-69
2022/01/11 04:26:53;;;;;;;1.42;1.38;;;3.70;99.90;;;;;;5131387;27;20129;-70
2022/01/11 04:29:19;;;;;;;0.10;0.10;;;3.70;99.90;;;;;;5131133;27;20028;-69
2022/01/11 04:31:44;;;;;;;0.10;0.10;;;3.60;99.90;;;;;;5115810;27;20504;-69
2022/01/11 04:34:10;;;;;;;0.95;0.95;;;3.70;99.90;;;;;;5110307;28;20019;-70
2022/01/11 04:36:37;;;;;;;0.17;0.17;;;3.70;99.90;;;;;;5110387;28;20441;-69
2022/01/11 04:39:08;;;;;;;0.40;0.40;;;3.70;99.90;;;;;;5110696;28;20016;-69
2022/01/11 04:41:34;;;;;;;1.60;1.50;;;3.80;99.90;;;;;;5116719;27;20031;-69
2022/01/11 04:44:00;;;;;;;1.00;1.00;;;3.70;99.90;;;;;;5137620;27;20030;-68
2022/01/11 04:46:26;;;;;;;0.10;0.10;;;3.60;99.90;;;;;;5130664;27;20023;-69
2022/01/11 04:48:53;;;;;;;0.10;0.10;;;3.60;99.90;;;;;;5131046;27;20023;-69
2022/01/11 04:51:20;;;;;;;1.88;1.65;;;3.60;99.90;;;;;;5114830;27;20028;-69
2022/01/11 04:53:46;;;;;;;1.88;1.77;;;3.70;99.90;;;;;;5111067;28;20024;-68
2022/01/11 04:56:12;;;;;;;0.20;0.20;;;3.80;99.90;;;;;;5110406;28;20031;-69
2022/01/11 04:58:38;;;;;;;0.15;0.15;;;3.70;99.90;;;;;;5125744;27;20027;-68
2022/01/11 05:01:04;;;;;;;0.10;0.10;;;3.70;99.90;;;;;;5123934;27;20066;-69
2022/01/11 05:03:30;;;;;;;4.35;3.95;;;3.70;99.90;;;;;;5129281;27;20057;-69
2022/01/11 05:05:55;;;;;;;0.45;0.45;;;3.70;99.90;;;;;;5109868;28;20032;-68
2022/01/11 05:08:21;;;;;;;2.65;1.75;;;3.70;99.90;;;;;;5116397;27;20102;-69
2022/01/11 05:10:47;;;;;;;1.48;1.38;;;3.80;99.90;;;;;;5130285;27;20027;-68
2022/01/11 05:13:15;;;;;;;0.20;0.20;;;3.80;99.90;;;;;;5130310;27;20015;-69
2022/01/11 05:15:41;;;;;;;0.10;0.10;;;3.80;99.90;;;;;;5130195;27;20042;-68
2022/01/11 05:18:08;;;;;;;0.30;0.30;;;3.90;99.90;;;;;;5113552;27;20515;-69
2022/01/11 05:20:36;;;;;;;0.10;0.10;;;3.80;99.90;;;;;;5109216;28;20484;-69
2022/01/11 05:23:02;;;;;;;0.10;0.10;;;3.80;99.90;;;;;;5109921;28;20043;-70
2022/01/11 05:25:28;;;;;;;0.10;0.10;;;3.80;99.90;;;;;;5111134;28;20031;-69
2022/01/11 05:27:54;;;;;;;0.10;0.10;;;3.70;99.90;;;;;;5121888;27;20038;-69
2022/01/11 05:30:20;;;;;;;3.83;1.85;;;3.70;99.90;;;;;;5130979;28;20023;-68
2022/01/11 05:32:48;;;;;;;0.10;0.10;;;3.60;99.90;;;;;;5130785;28;20055;-69
2022/01/11 05:35:15;;;;;;;0.10;0.10;;;3.60;99.90;;;;;;5128755;28;20504;-69
2022/01/11 05:37:41;;;;;;;0.43;0.43;;;3.50;99.90;;;;;;5130102;28;20084;-69
2022/01/11 05:40:08;;;;;;;0.10;0.10;;;3.60;99.90;;;;;;5120535;27;20480;-69
2022/01/11 05:42:34;;;;;;;0.10;0.10;;;3.60;99.90;;;;;;5130164;28;20030;-69
2022/01/11 05:45:01;;;;;;;0.10;0.10;;;3.60;99.90;;;;;;5126974;27;20084;-70
2022/01/11 05:47:26;;;;;;;0.10;0.10;;;3.50;99.90;;;;;;5134337;27;20050;-69
2022/01/11 05:49:52;;;;;;;0.30;0.30;;;3.60;99.90;;;;;;5134999;27;20081;-69
2022/01/11 05:52:18;;;;;;;0.10;0.10;;;3.70;99.90;;;;;;5128852;27;20537;-68
2022/01/11 05:54:44;;;;;;;0.35;0.35;;;3.70;99.90;;;;;;5113974;28;20033;-69
2022/01/11 05:57:09;;;;;;;0.10;0.10;;;3.70;99.90;;;;;;5123151;27;20056;-69
2022/01/11 05:59:35;;;;;;;0.10;0.10;;;3.70;99.90;;;;;;5133317;27;20030;-69
2022/01/11 06:02:01;;;;;;;0.50;0.50;;;3.80;99.90;;;;;;5114243;27;20506;-70
2022/01/11 06:04:27;;;;;;;0.20;0.20;;;3.80;99.90;;;;;;5123021;27;20160;-68
2022/01/11 06:06:52;;;;;;;0.10;0.10;;;3.80;99.90;;;;;;5133714;27;20027;-69
2022/01/11 06:09:18;;;;;;;0.63;0.63;;;3.90;99.90;;;;;;5134352;27;20088;-68
2022/01/11 06:11:44;;;;;;;0.30;0.30;;;3.90;99.90;;;;;;5124227;27;20120;-69
2022/01/11 06:14:10;;;;;;;2.15;2.05;;;3.80;99.90;;;;;;5134237;27;20019;-70
2022/01/11 06:16:36;;;;;;;0.10;0.10;;;3.80;99.90;;;;;;5115642;27;20027;-70
2022/01/11 06:19:03;;;;;;;0.10;0.10;;;3.70;99.90;;;;;;5134401;27;20076;-69
2022/01/11 06:21:29;;;;;;;0.15;0.15;;;3.70;99.90;;;;;;5080940;28;20065;-69
2022/01/11 06:23:55;;;;;;;2.47;2.28;;;3.70;99.90;;;;;;5121071;28;20373;-69
2022/01/11 06:26:21;;;;;;;0.30;0.30;;;3.70;99.90;;;;;;5129852;27;20035;-70
2022/01/11 06:28:47;;;;;;;0.10;0.10;;;3.60;99.90;;;;;;5132768;27;20023;-69
2022/01/11 06:31:13;;;;;;;0.47;0.47;;;3.60;99.90;;;;;;5113465;28;20030;-70
2022/01/11 06:33:40;;;;;;;0.13;0.13;;;3.70;99.90;;;;;;5115605;27;20020;-70
2022/01/11 06:36:11;;;;;;;1.98;1.88;;;3.60;99.90;;;;;;5133667;27;20053;-69
2022/01/11 06:38:38;;;;;;;0.10;0.10;;;3.70;99.90;;;;;;5117935;27;20517;-69
2022/01/11 06:41:04;;;;;;;0.20;0.20;;;3.70;99.90;;;;;;5122440;27;20027;-70
2022/01/11 06:43:30;;;;;;;0.70;0.47;;;3.70;99.90;;;;;;5133604;27;20027;-69
2022/01/11 06:45:56;;;;;;;0.30;0.30;;;3.70;99.90;;;;;;5133825;27;20034;-70
2022/01/11 06:48:21;;;;;;;0.10;0.10;;;3.70;99.90;;;;;;5132246;27;20045;-68
2022/01/11 06:50:47;;;;;;;0.10;0.10;;;3.80;99.90;;;;;;5133751;27;20027;-70
2022/01/11 06:53:13;;;;;;;0.40;0.40;;;3.70;99.90;;;;;;5114688;27;20050;-70
2022/01/11 06:55:39;;;;;;;0.10;0.10;;;3.80;99.90;;;;;;5131716;27;20520;-69
2022/01/11 06:58:04;;;;;;;4.90;2.38;;;3.80;99.90;;;;;;5133061;27;20130;-70
2022/01/11 07:00:30;;;;;;;0.20;0.20;;;3.80;99.90;;;;;;5113961;27;20050;-71
2022/01/11 07:02:55;;;;;;;0.10;0.10;;;3.90;99.90;;;;;;5133422;27;20445;-69
2022/01/11 07:05:22;;;;;;;5.38;3.55;;;3.90;99.90;;;;;;5131019;27;20081;-69
2022/01/11 07:07:48;;;;;;;0.40;0.40;;;3.90;99.90;;;;;;5114393;27;20490;-69
2022/01/11 07:10:13;;;;;;;0.90;0.90;;;3.90;99.90;;;;;;5131192;27;20031;-69
2022/01/11 07:12:39;;;;;;;0.10;0.10;;;3.80;99.90;;;;;;5122268;27;20484;-70
2022/01/11 07:15:06;;;;;;;3.03;2.83;;;3.90;99.90;;;;;;5119806;27;20024;-71
2022/01/11 07:17:31;;;;;;;1.45;1.45;;;3.70;99.90;;;;;;5101323;27;20463;-69
2022/01/11 07:19:57;;;;;;;0.30;0.30;;;3.70;99.90;;;;;;5129337;27;20114;-69
2022/01/11 07:22:23;;;;;;;0.17;0.17;;;3.70;99.90;;;;;;5132408;27;20092;-70
2022/01/11 07:24:48;;;;;;;0.10;0.10;;;3.80;99.90;;;;;;5128497;27;20024;-69
2022/01/11 07:27:14;;;;;;;1.73;1.63;;;3.90;99.90;;;;;;5129749;27;20106;-69
2022/01/11 07:29:40;;;;;;;0.10;0.10;;;3.90;99.90;;;;;;5132594;27;20039;-69
2022/01/11 07:32:06;;;;;;;1.40;1.40;;;4.00;99.90;;;;;;5126892;27;20031;-69
2022/01/11 07:34:32;;;;;;;0.30;0.30;;;4.00;99.90;;;;;;5121943;27;20015;-68
2022/01/11 07:36:58;;;;;;;0.10;0.10;;;4.00;99.90;;;;;;5123396;27;20022;-69
2022/01/11 07:39:24;;;;;;;0.65;0.65;;;4.00;99.90;;;;;;5128806;27;20558;-69
2022/01/11 07:41:50;;;;;;;0.82;0.77;;;4.00;99.90;;;;;;5118408;27;20388;-70
2022/01/11 07:44:16;;;;;;;3.30;2.30;;;3.90;99.90;;;;;;5125428;27;20027;-69
2022/01/11 07:46:43;;;;;;;0.10;0.10;;;3.90;99.90;;;;;;5126625;27;20023;-69
2022/01/11 07:49:09;;;;;;;9.63;8.73;;;3.90;99.90;;;;;;5123958;22;20044;-70
2022/01/11 07:51:35;;;;;;;0.80;0.80;;;3.90;99.90;;;;;;5090136;28;20422;-71
2022/01/11 07:54:01;;;;;;;0.40;0.40;;;4.00;99.90;;;;;;5088399;28;20046;-73
2022/01/11 07:56:26;;;;;;;0.15;0.15;;;4.00;99.90;;;;;;5086006;28;20024;-72
2022/01/11 07:58:52;;;;;;;1.33;1.25;;;4.00;99.90;;;;;;5086070;28;20020;-72
2022/01/11 08:01:18;;;;;;;2.72;2.15;;;4.00;99.90;;;;;;5075060;28;20534;-71
2022/01/11 08:03:45;;;;;;;0.20;0.20;;;4.00;99.90;;;;;;5079561;28;20477;-72
2022/01/11 08:06:11;;;;;;;0.10;0.10;;;4.00;99.90;;;;;;5074562;28;20028;-70
2022/01/11 08:08:37;;;;;;;0.10;0.10;;;3.90;99.90;;;;;;5090595;28;20035;-72
2022/01/11 08:11:02;;;;;;;0.50;0.50;;;4.00;99.90;;;;;;5089999;28;20401;-71
2022/01/11 08:13:29;;;;;;;0.43;0.43;;;4.00;99.90;;;;;;5086095;28;20076;-71
2022/01/11 08:15:55;;;;;;;0.10;0.10;;;4.20;99.90;;;;;;5091005;28;20024;-71
2022/01/11 08:18:20;;;;;;;0.30;0.30;;;4.30;99.90;;;;;;5078179;28;20098;-72
2022/01/11 08:20:47;;;;;;;0.75;0.75;;;5.00;99.90;;;;;;5077745;28;20039;-72
2022/01/11 08:23:14;;;;;;;0.90;0.65;;;4.20;99.90;;;;;;5076043;28;20024;-71
2022/01/11 08:25:40;;;;;;;0.10;0.10;;;4.20;99.90;;;;;;5078243;28;20060;-73
2022/01/11 08:28:06;;;;;;;0.38;0.38;;;4.30;99.90;;;;;;5077337;28;20195;-72
2022/01/11 08:30:33;;;;;;;0.10;0.10;;;4.20;99.90;;;;;;5079385;28;20039;-72
2022/01/11 08:32:58;;;;;;;0.10;0.10;;;4.10;99.90;;;;;;5070734;28;20024;-71
2022/01/11 08:35:24;;;;;;;0.10;0.10;;;3.70;99.90;;;;;;5086182;28;20642;-71
2022/01/11 08:37:51;;;;;;;0.10;0.10;;;4.00;99.90;;;;;;5077780;28;20040;-73
2022/01/11 08:40:17;;;;;;;0.10;0.10;;;4.10;99.90;;;;;;5081198;28;20031;-71
2022/01/11 08:42:43;;;;;;;0.10;0.10;;;4.10;99.90;;;;;;5077772;28;20024;-71
2022/01/11 08:45:09;;;;;;;1.23;1.23;;;4.20;99.90;;;;;;5076661;28;20085;-71
2022/01/11 08:47:35;;;;;;;0.10;0.10;;;4.10;99.90;;;;;;5076556;28;20035;-71
2022/01/11 08:50:03;;;;;;;0.10;0.10;;;4.10;99.90;;;;;;5072271;28;20032;-72
2022/01/11 08:52:29;;;;;;;0.55;0.55;;;4.50;99.90;;;;;;5081690;28;20021;-74
2022/01/11 08:54:55;;;;;;;0.10;0.10;;;4.20;99.90;;;;;;5078727;28;20039;-72
2022/01/11 08:57:21;;;;;;;2.67;2.47;;;4.20;99.90;;;;;;5082402;28;20024;-71
2022/01/11 08:59:48;;;;;;;0.10;0.10;;;4.20;99.90;;;;;;5077508;28;20082;-72
2022/01/11 09:02:14;;;;;;;0.10;0.10;;;4.20;99.90;;;;;;5076396;28;20031;-71
2022/01/11 09:04:40;;;;;;;0.25;0.25;;;4.30;99.90;;;;;;5082078;28;20021;-72
2022/01/11 09:07:06;;;;;;;0.10;0.10;;;4.30;99.90;;;;;;5077410;28;20017;-73
2022/01/11 09:09:32;;;;;;;0.10;0.10;;;4.50;99.90;;;;;;5068499;28;20055;-71
2022/01/11 09:12:03;;;;;;;0.10;0.10;;;4.20;99.90;;;;;;5075525;28;20024;-70
2022/01/11 09:14:30;;;;;;;0.10;0.10;;;4.20;99.90;;;;;;5069141;28;20024;-72
2022/01/11 09:16:57;;;;;;;0.95;0.95;;;4.20;99.90;;;;;;5083311;28;20475;-72
2022/01/11 09:19:23;;;;;;;0.13;0.13;;;4.20;99.90;;;;;;5070442;28;20101;-72
2022/01/11 09:21:49;;;;;;;0.32;0.32;;;4.20;99.90;;;;;;5082772;28;20540;-72
2022/01/11 09:24:19;;;;;;;1.17;1.17;;;4.20;99.90;;;;;;5075452;28;20190;-72
2022/01/11 09:26:47;;;;;;;0.20;0.20;;;4.20;99.90;;;;;;5057886;28;20024;-72
2022/01/11 09:29:13;;;;;;;0.10;0.10;;;4.30;99.90;;;;;;5080729;28;20024;-71
2022/01/11 09:31:39;;;;;;;1.70;1.63;;;4.40;99.90;;;;;;5076042;28;20078;-71
2022/01/11 09:34:05;;;;;;;0.10;0.10;;;5.40;99.90;;;;;;5083613;28;20290;-72
2022/01/11 09:36:30;;;;;;;0.50;0.50;;;4.40;99.90;;;;;;5054100;28;20056;-74
2022/01/11 09:38:57;;;;;;;0.38;0.38;;;4.50;99.90;;;;;;5079163;28;20024;-72
2022/01/11 09:41:22;;;;;;;0.80;0.80;;;4.40;99.90;;;;;;5084765;28;20062;-72
2022/01/11 09:43:48;;;;;;;0.10;0.10;;;4.30;99.90;;;;;;5080292;28;20036;-71
2022/01/11 09:46:14;;;;;;;1.40;1.30;;;4.30;99.90;;;;;;5079457;28;20035;-71
2022/01/11 09:48:41;;;;;;;7.55;5.70;;;4.20;99.90;;;;;;5081847;28;20032;-73
2022/01/11 09:51:07;;;;;;;0.40;0.40;;;4.40;99.90;;;;;;5066932;28;20112;-71
2022/01/11 09:53:32;;;;;;;0.10;0.10;;;4.30;99.90;;;;;;5070796;28;20438;-71
2022/01/11 09:56:06;;;;;;;0.10;0.10;;;4.30;99.90;;;;;;5076534;28;20032;-71
2022/01/11 09:58:35;;;;;;;1.55;1.45;;;4.30;99.90;;;;;;5076600;28;20038;-72
2022/01/11 10:01:02;;;;;;;0.13;0.13;;;4.40;99.90;;;;;;5074875;28;20486;-71
2022/01/11 10:03:28;;;;;;;0.13;0.13;;;4.40;99.90;;;;;;5073111;28;20055;-70
2022/01/11 10:05:54;;;;;;;1.67;1.55;;;4.60;99.90;;;;;;5074567;28;20067;-71
2022/01/11 10:08:28;;;;;;;0.10;0.10;;;4.50;99.90;;;;;;5073095;28;20024;-72
2022/01/11 10:10:57;;;;;;;1.00;1.00;;;4.50;99.90;;;;;;5071246;28;20088;-70
2022/01/11 10:13:40;;;;;;;0.32;0.32;;;4.60;99.90;;;;;;5077091;28;20035;-72
2022/01/11 10:16:23;;;;;;;0.10;0.10;;;4.60;99.90;;;;;;5081303;28;20066;-70
2022/01/11 10:18:50;;;;;;;0.20;0.20;;;4.80;99.90;;;;;;5080797;28;20025;-71
2022/01/11 10:21:33;;;;;;;0.10;0.10;;;4.80;99.90;;;;;;5065553;28;20024;-70
2022/01/11 10:24:00;;;;;;;0.10;0.10;;;4.70;99.90;;;;;;5077214;28;20239;-71
2022/01/11 10:26:45;;;;;;;0.40;0.40;;;4.70;99.90;;;;;;5078788;28;20055;-71
2022/01/11 10:29:23;;;;;;;0.10;0.10;;;4.80;99.90;;;;;;5073759;28;20020;-71
2022/01/11 10:31:50;;;;;;;0.10;0.10;;;5.10;99.90;;;;;;5066140;28;20071;-72
2022/01/11 10:34:25;;;;;;;0.60;0.60;;;4.80;99.90;;;;;;5077010;28;20017;-71
2022/01/11 10:36:51;;;;;;;0.10;0.10;;;4.90;99.90;;;;;;5082411;28;20111;-71
2022/01/11 10:39:29;;;;;;;1.38;1.27;;;4.80;99.90;;;;;;5087584;28;20056;-72
2022/01/11 10:41:57;;;;;;;0.10;0.10;;;5.00;99.90;;;;;;5091020;28;20035;-70
2022/01/11 10:44:53;;;;;;;0.70;0.70;;;5.10;99.90;;;;;;5078059;28;20028;-71
2022/01/11 10:47:31;;;;;;;0.98;0.93;;;5.10;99.90;;;;;;5087903;28;20024;-70
2022/01/11 10:50:18;;;;;;;0.55;0.55;;;5.20;99.90;;;;;;5082599;28;20083;-71
2022/01/11 10:52:45;;;;;;;1.80;1.70;;;5.20;99.90;;;;;;5088569;28;20028;-71
2022/01/11 10:55:17;;;;;;;0.10;0.10;;;5.20;99.90;;;;;;5087908;28;20048;-70
2022/01/11 10:57:48;;;;;;;0.10;0.10;;;5.20;99.90;;;;;;5085020;28;20032;-70
2022/01/11 11:00:20;;;;;;;0.10;0.10;;;5.20;99.90;;;;;;5092868;28;20048;-69
2022/01/11 11:02:49;;;;;;;0.10;0.10;;;5.30;99.90;;;;;;5084569;28;20030;-71
2022/01/11 11:05:24;;;;;;;0.10;0.10;;;5.40;99.90;;;;;;5090867;28;20369;-71
2022/01/11 11:08:05;;;;;;;0.22;0.22;;;5.50;99.90;;;;;;5086889;28;20063;-71
2022/01/11 11:10:51;;;;;;;0.10;0.10;;;5.50;99.90;;;;;;5090937;28;20122;-71
2022/01/11 11:13:21;;;;;;;0.38;0.38;;;5.50;99.90;;;;;;5087707;28;20017;-72
2022/01/11 11:15:50;;;;;;;0.10;0.10;;;5.20;99.90;;;;;;5088231;28;20024;-71
2022/01/11 11:18:25;;;;;;;0.10;0.10;;;4.80;99.90;;;;;;5086496;28;20114;-71
2022/01/11 11:20:51;;;;;;;0.10;0.10;;;4.90;99.90;;;;;;5080675;28;20079;-70
2022/01/11 11:23:17;;;;;;;0.32;0.32;;;5.20;99.90;;;;;;5084915;28;20108;-69
2022/01/11 11:25:46;;;;;;;0.22;0.22;;;5.40;99.90;;;;;;5084898;28;20028;-70
2022/01/11 11:28:12;;;;;;;0.10;0.10;;;5.50;99.90;;;;;;5087766;28;20436;-71
2022/01/11 11:30:39;;;;;;;3.95;3.35;;;5.70;99.90;;;;;;5088026;28;20020;-70
2022/01/11 11:33:06;;;;;;;0.35;0.35;;;5.80;99.90;;;;;;5080186;28;20016;-74
2022/01/11 11:35:33;;;;;;;0.10;0.10;;;5.90;99.90;;;;;;5075952;28;20024;-69
2022/01/11 11:38:06;;;;;;;1.70;1.60;;;6.00;99.90;;;;;;5079802;28;20132;-69
2022/01/11 11:40:33;;;;;;;0.38;0.38;;;6.00;99.90;;;;;;5082003;28;20027;-75
2022/01/11 11:43:01;;;;;;;0.45;0.45;;;5.80;99.90;;;;;;5085438;28;20085;-74
2022/01/11 11:45:33;;;;;;;0.10;0.10;;;6.00;99.90;;;;;;5086612;28;20119;-75
2022/01/11 11:48:11;;;;;;;0.13;0.13;;;6.00;99.90;;;;;;5085460;28;20077;-70
2022/01/11 11:51:08;;;;;;;0.00;0.00;;;6.00;99.90;;;;;;5089194;28;20025;-69
2022/01/11 11:53:36;;;;;;;0.10;0.10;;;5.90;99.90;;;;;;5071655;28;20049;-70
2022/01/11 11:56:29;;;;;;;0.10;0.10;;;6.00;99.90;;;;;;5083009;28;20020;-70
2022/01/11 11:58:58;;;;;;;0.10;0.10;;;6.00;99.90;;;;;;5087969;28;20004;-71
2022/01/11 12:01:41;;;;;;;0.73;0.73;;;6.20;99.90;;;;;;5089253;28;20016;-71
2022/01/11 12:04:17;;;;;;;0.10;0.10;;;6.20;99.90;;;;;;5089013;28;20050;-72
2022/01/11 12:06:44;;;;;;;0.10;0.10;;;6.20;99.90;;;;;;5091377;28;20035;-72
2022/01/11 12:09:12;;;;;;;6.57;1.45;;;6.10;99.90;;;;;;5086904;28;20103;-71
2022/01/11 12:11:45;;;;;;;0.05;0.05;;;6.20;99.90;;;;;;5088316;28;20036;-70
2022/01/11 12:14:32;;;;;;;0.10;0.10;;;6.20;99.90;;;;;;5080819;28;20017;-71
2022/01/11 12:17:23;;;;;;;0.10;0.10;;;6.30;99.90;;;;;;5080930;28;20035;-72
2022/01/11 12:19:49;;;;;;;0.17;0.17;;;6.40;99.90;;;;;;5075722;28;20023;-73
2022/01/11 12:22:21;;;;;;;0.10;0.10;;;6.60;99.90;;;;;;5079473;28;20103;-72
2022/01/11 12:24:49;;;;;;;0.10;0.10;;;6.60;99.90;;;;;;5083436;28;20637;-71
2022/01/11 12:27:21;;;;;;;1.75;1.35;;;6.50;99.90;;;;;;5085704;28;20024;-72
2022/01/11 12:30:05;;;;;;;0.15;0.15;;;7.80;99.90;;;;;;5087226;28;20025;-71
2022/01/11 12:32:53;;;;;;;1.00;1.00;;;6.50;99.90;;;;;;5088562;28;20469;-73
2022/01/11 12:35:24;;;;;;;0.10;0.10;;;6.60;99.90;;;;;;5088720;28;20466;-71
2022/01/11 12:38:06;;;;;;;0.00;0.00;;;6.60;99.90;;;;;;5085676;28;20032;-72
2022/01/11 12:40:38;;;;;;;0.08;0.08;;;6.70;99.90;;;;;;5077139;28;20473;-72
2022/01/11 12:43:08;;;;;;;0.10;0.10;;;6.70;99.90;;;;;;5090284;28;20026;-71
2022/01/11 12:45:57;;;;;;;0.10;0.10;;;6.60;99.90;;;;;;5081716;28;20041;-71
2022/01/11 12:48:53;;;;;;;0.52;0.47;;;6.60;99.90;;;;;;5085142;28;20480;-70
2022/01/11 12:51:19;;;;;;;0.10;0.10;;;6.60;99.90;;;;;;5087484;28;20020;-70
2022/01/11 12:53:44;;;;;;;0.10;0.10;;;6.60;99.90;;;;;;5080544;28;20039;-72
2022/01/11 12:56:10;;;;;;;0.10;0.10;;;6.50;99.90;;;;;;5091338;28;20535;-69
2022/01/11 12:58:36;;;;;;;0.10;0.10;;;6.50;99.90;;;;;;5083188;28;20025;-71
2022/01/11 13:01:18;;;;;;;0.00;0.00;;;6.50;99.90;;;;;;5075849;28;21018;-71
2022/01/11 13:03:54;;;;;;;0.00;0.00;;;6.40;99.90;;;;;;5081014;28;20021;-70
2022/01/11 13:06:19;;;;;;;0.10;0.10;;;6.50;99.90;;;;;;5085410;28;20058;-70
2022/01/11 13:08:50;;;;;;;0.10;0.10;;;6.50;99.90;;;;;;5089566;28;20091;-71